Time;durP1;ratioP1;P1;durP2;ratioP2;P2;SDS_P1;SDS_P2;PMS_P1;PMS_P2;Temp;Humidity;BMP_temperature;BMP_pressure;BME280_temperature;BME280_humidity;BME280_pressure;Samples;Min_cycle;Max_cycle;Signal;HPM_P1;HPM_P2
2023/03/23 10:11:16;;;;;;;10.23;9.83;;;18.40;94.10;;;;;;6184004;22;1202649;-76
2023/03/23 10:13:59;;;;;;;11.17;10.57;;;19.50;93.30;;;;;;6223856;23;20544;-75
2023/03/23 10:16:30;;;;;;;11.00;10.50;;;19.40;93.40;;;;;;6223725;23;20445;-76
2023/03/23 10:19:02;;;;;;;10.50;10.00;;;19.70;93.30;;;;;;6223899;23;20400;-75
2023/03/23 10:21:32;;;;;;;11.07;10.57;;;19.80;92.60;;;;;;6223642;23;20435;-76
2023/03/23 10:24:01;;;;;;;11.10;10.70;;;20.00;92.40;;;;;;6223478;23;20411;-76
2023/03/23 10:26:38;;;;;;;11.40;10.80;;;20.20;92.60;;;;;;6223682;23;20400;-76
2023/03/23 10:29:14;;;;;;;10.60;10.20;;;20.40;91.90;;;;;;6223680;23;20428;-76
2023/03/23 10:31:44;;;;;;;11.03;10.53;;;20.40;91.70;;;;;;6223757;23;20396;-76
2023/03/23 10:34:15;;;;;;;11.37;10.87;;;20.60;91.30;;;;;;6223616;23;20418;-76
2023/03/23 10:36:52;;;;;;;11.00;10.50;;;20.40;91.40;;;;;;6223315;23;20420;-76
2023/03/23 10:39:22;;;;;;;10.93;10.53;;;20.80;91.00;;;;;;6223357;23;20458;-75
2023/03/23 10:41:50;;;;;;;11.97;11.47;;;20.70;91.00;;;;;;6223482;23;20404;-76
2023/03/23 10:44:18;;;;;;;11.90;11.30;;;20.90;90.70;;;;;;6223406;23;20412;-75
2023/03/23 10:46:53;;;;;;;11.17;10.77;;;20.80;90.30;;;;;;6223058;23;20920;-75
2023/03/23 10:49:23;;;;;;;11.10;10.70;;;20.50;90.90;;;;;;6223349;23;20424;-76
2023/03/23 10:51:59;;;;;;;10.17;9.77;;;20.50;90.80;;;;;;6223108;23;20910;-76
2023/03/23 10:54:28;;;;;;;11.03;10.57;;;19.90;91.40;;;;;;6223492;23;20423;-76
2023/03/23 10:56:57;;;;;;;11.07;10.67;;;19.80;91.90;;;;;;6223390;23;20447;-76
2023/03/23 10:59:28;;;;;;;10.90;10.50;;;19.60;92.20;;;;;;6223203;23;20408;-76
2023/03/23 11:01:58;;;;;;;10.73;10.33;;;19.70;92.40;;;;;;6223357;23;20396;-76
2023/03/23 11:04:27;;;;;;;11.07;10.27;;;19.90;92.10;;;;;;6223254;23;20757;-76
2023/03/23 11:06:58;;;;;;;11.60;11.10;;;19.90;92.40;;;;;;6223085;23;20412;-76
2023/03/23 11:09:36;;;;;;;10.83;10.43;;;20.00;92.20;;;;;;6222442;23;20466;-76
2023/03/23 11:12:04;;;;;;;11.63;11.13;;;19.80;92.00;;;;;;6216202;23;20880;-76
2023/03/23 11:14:34;;;;;;;10.67;10.27;;;19.90;91.90;;;;;;6215966;23;20892;-76
2023/03/23 11:17:03;;;;;;;10.87;10.47;;;19.70;92.40;;;;;;6216506;23;20419;-76
2023/03/23 11:19:32;;;;;;;11.03;10.53;;;19.80;92.40;;;;;;6216436;23;20409;-76
2023/03/23 11:22:09;;;;;;;10.70;10.13;;;20.10;92.30;;;;;;6216260;23;20407;-75
2023/03/23 11:24:41;;;;;;;10.80;10.40;;;20.20;91.90;;;;;;6216382;23;20438;-76
2023/03/23 11:27:10;;;;;;;11.07;10.57;;;20.30;92.00;;;;;;6216128;23;20374;-75
2023/03/23 11:29:49;;;;;;;11.90;11.30;;;20.40;91.90;;;;;;6216233;23;20441;-76
2023/03/23 11:32:17;;;;;;;12.23;11.13;;;20.40;92.00;;;;;;6216077;23;20857;-75
2023/03/23 11:34:47;;;;;;;11.70;11.10;;;20.20;92.10;;;;;;6216368;23;20463;-76
2023/03/23 11:37:19;;;;;;;10.83;10.43;;;20.00;92.00;;;;;;6216319;23;20413;-76
2023/03/23 11:39:50;;;;;;;11.90;11.30;;;20.00;92.60;;;;;;6216231;23;20393;-76
2023/03/23 11:42:25;;;;;;;11.27;10.87;;;20.00;92.80;;;;;;6215840;23;20413;-75
2023/03/23 11:44:52;;;;;;;11.00;10.60;;;20.10;93.60;;;;;;6216264;23;20710;-76
2023/03/23 11:47:28;;;;;;;11.57;10.93;;;20.20;93.70;;;;;;6215839;23;20413;-76
2023/03/23 11:50:03;;;;;;;11.23;10.83;;;20.50;94.10;;;;;;6216140;23;20431;-76
2023/03/23 11:52:40;;;;;;;11.87;11.30;;;21.10;91.80;;;;;;6216237;23;20456;-76
2023/03/23 11:55:12;;;;;;;12.10;11.60;;;21.40;91.10;;;;;;6215682;23;20392;-76
2023/03/23 11:57:41;;;;;;;12.17;11.57;;;21.50;90.60;;;;;;6214940;23;20397;-76
2023/03/23 12:00:18;;;;;;;11.50;10.90;;;21.60;90.50;;;;;;6214696;23;20409;-76
2023/03/23 12:02:53;;;;;;;11.13;10.63;;;21.20;90.40;;;;;;6214631;23;20393;-75
2023/03/23 12:05:35;;;;;;;11.60;11.20;;;20.90;90.60;;;;;;6214731;23;20400;-76
2023/03/23 12:08:26;;;;;;;11.60;11.00;;;20.40;91.40;;;;;;6214560;23;20424;-75
2023/03/23 12:11:00;;;;;;;11.70;11.20;;;20.60;91.80;;;;;;6220503;23;20455;-76
2023/03/23 12:13:52;;;;;;;11.40;11.00;;;20.50;91.60;;;;;;6214615;23;20400;-76
2023/03/23 12:16:27;;;;;;;11.93;11.43;;;20.70;92.10;;;;;;6214324;23;20448;-76
2023/03/23 12:19:02;;;;;;;12.83;12.17;;;20.90;91.40;;;;;;6214539;23;20821;-76
2023/03/23 12:21:38;;;;;;;11.10;10.70;;;20.80;90.30;;;;;;6214175;23;20437;-76
2023/03/23 12:24:15;;;;;;;10.93;10.53;;;20.70;89.50;;;;;;6214094;23;20393;-76
2023/03/23 12:26:48;;;;;;;11.37;10.97;;;20.60;90.00;;;;;;6214198;23;20971;-75
2023/03/23 12:29:45;;;;;;;12.10;11.50;;;20.90;89.30;;;;;;6214207;23;20433;-77
2023/03/23 12:32:32;;;;;;;12.00;11.40;;;20.90;90.00;;;;;;6212645;23;20468;-77
2023/03/23 12:35:08;;;;;;;11.57;11.03;;;20.90;89.50;;;;;;6214543;23;20500;-75
2023/03/23 12:37:50;;;;;;;12.40;11.53;;;20.90;88.40;;;;;;6214483;23;20864;-75
2023/03/23 12:40:27;;;;;;;10.60;10.10;;;20.80;88.50;;;;;;6214200;23;20479;-75
2023/03/23 12:42:59;;;;;;;10.60;10.20;;;20.80;87.00;;;;;;6214355;23;20385;-75
2023/03/23 12:45:46;;;;;;;10.93;10.50;;;20.80;87.50;;;;;;6214064;23;20463;-75
2023/03/23 12:48:18;;;;;;;11.73;11.03;;;20.60;88.10;;;;;;6214147;23;20397;-75
2023/03/23 12:50:49;;;;;;;11.30;10.80;;;20.80;87.70;;;;;;6214130;23;20435;-76
2023/03/23 12:53:23;;;;;;;11.17;10.70;;;20.90;86.60;;;;;;6214183;23;20447;-76
2023/03/23 12:55:53;;;;;;;11.17;10.60;;;20.90;86.80;;;;;;6214182;23;20401;-75
2023/03/23 12:58:22;;;;;;;11.77;11.27;;;21.20;85.90;;;;;;6214063;23;20405;-75
2023/03/23 13:00:57;;;;;;;11.30;10.90;;;21.20;85.90;;;;;;6214163;23;20401;-75
2023/03/23 13:03:30;;;;;;;11.50;11.00;;;21.00;85.90;;;;;;6214091;23;20393;-75
2023/03/23 13:06:04;;;;;;;11.00;10.50;;;21.10;86.50;;;;;;6214047;23;20444;-75
2023/03/23 13:08:35;;;;;;;10.87;10.47;;;21.20;86.20;;;;;;6213588;23;20504;-76
2023/03/23 13:11:06;;;;;;;10.67;10.17;;;21.30;86.50;;;;;;6213727;23;20429;-75
2023/03/23 13:13:47;;;;;;;11.80;11.20;;;21.20;85.70;;;;;;6214058;23;20551;-75
2023/03/23 13:16:26;;;;;;;10.40;9.90;;;21.10;86.20;;;;;;6214063;23;20393;-76
2023/03/23 13:19:05;;;;;;;10.80;10.33;;;21.10;86.50;;;;;;6214386;23;20397;-74
2023/03/23 13:21:34;;;;;;;11.17;10.67;;;21.20;86.40;;;;;;6214146;23;20443;-75
2023/03/23 13:24:05;;;;;;;11.20;10.80;;;21.40;85.70;;;;;;6214164;23;20504;-75
2023/03/23 13:26:32;;;;;;;11.17;10.77;;;21.50;85.70;;;;;;6214026;23;20397;-77
2023/03/23 13:29:02;;;;;;;10.70;10.17;;;21.50;86.20;;;;;;6213861;23;20918;-75
2023/03/23 13:31:33;;;;;;;11.03;10.43;;;22.00;85.30;;;;;;6213804;23;20472;-75
2023/03/23 13:34:04;;;;;;;12.20;11.70;;;22.00;84.40;;;;;;6213302;23;20397;-75
2023/03/23 13:36:38;;;;;;;11.40;11.00;;;22.00;83.80;;;;;;6213978;23;20397;-75
2023/03/23 13:39:08;;;;;;;12.37;11.70;;;22.20;84.50;;;;;;6213995;23;20393;-75
2023/03/23 13:41:46;;;;;;;11.70;11.30;;;22.20;83.70;;;;;;6213930;23;20400;-75
2023/03/23 13:44:19;;;;;;;11.47;10.83;;;22.30;83.50;;;;;;6213918;23;20483;-76
2023/03/23 13:46:58;;;;;;;11.87;11.47;;;21.80;84.40;;;;;;6213837;23;20431;-75
2023/03/23 13:49:25;;;;;;;11.93;11.33;;;21.50;83.40;;;;;;6213903;23;20397;-75
2023/03/23 13:52:17;;;;;;;12.30;11.80;;;21.60;83.70;;;;;;6213884;23;20451;-76
2023/03/23 13:54:46;;;;;;;11.87;11.37;;;21.70;83.80;;;;;;6213951;23;20393;-75
2023/03/23 13:57:37;;;;;;;12.37;11.67;;;21.80;83.50;;;;;;6213894;23;20409;-76
2023/03/23 14:00:15;;;;;;;11.90;11.40;;;21.30;83.10;;;;;;6214150;23;20456;-75
2023/03/23 14:02:45;;;;;;;12.87;12.27;;;21.00;84.60;;;;;;6214178;23;20396;-74
2023/03/23 14:05:36;;;;;;;11.53;11.00;;;21.00;84.80;;;;;;6214052;23;20409;-75
2023/03/23 14:08:10;;;;;;;12.00;11.50;;;20.90;84.40;;;;;;6213862;23;20440;-75
2023/03/23 14:10:40;;;;;;;11.73;11.27;;;20.80;85.00;;;;;;6213965;23;20482;-75
2023/03/23 14:13:16;;;;;;;11.67;11.27;;;20.60;84.50;;;;;;6214018;23;20440;-76
2023/03/23 14:15:45;;;;;;;11.10;10.70;;;20.50;85.60;;;;;;6214864;23;20510;-76
2023/03/23 14:18:16;;;;;;;11.53;11.03;;;20.50;85.70;;;;;;6213983;23;20409;-77
2023/03/23 14:20:47;;;;;;;10.97;10.47;;;20.50;86.10;;;;;;6213916;23;20476;-77
2023/03/23 14:23:17;;;;;;;11.50;11.00;;;20.60;85.50;;;;;;6214444;23;20771;-77
2023/03/23 14:25:43;;;;;;;11.23;10.83;;;20.70;85.40;;;;;;6214196;23;20885;-76
2023/03/23 14:28:20;;;;;;;10.83;10.40;;;20.40;84.80;;;;;;6214274;23;20734;-75
2023/03/23 14:30:48;;;;;;;10.80;10.30;;;20.30;84.80;;;;;;6213865;23;20433;-75
2023/03/23 14:33:16;;;;;;;11.47;11.07;;;20.20;85.80;;;;;;6213684;23;20416;-75
2023/03/23 14:35:46;;;;;;;11.33;10.93;;;20.20;85.80;;;;;;6213958;23;20440;-75
2023/03/23 14:38:18;;;;;;;11.53;11.03;;;20.10;85.00;;;;;;6213610;23;20500;-75
2023/03/23 14:40:45;;;;;;;11.57;10.80;;;19.90;84.90;;;;;;6213633;23;20390;-76
2023/03/23 14:43:15;;;;;;;11.37;10.97;;;19.90;85.90;;;;;;6213828;23;20408;-76
2023/03/23 14:45:42;;;;;;;10.87;10.47;;;19.70;84.50;;;;;;6214518;23;20409;-76
2023/03/23 14:48:14;;;;;;;10.90;10.50;;;19.60;84.80;;;;;;6215327;23;20457;-76
2023/03/23 14:50:43;;;;;;;12.10;11.40;;;19.70;85.00;;;;;;6215850;23;20429;-76
2023/03/23 14:53:17;;;;;;;11.63;11.23;;;19.80;84.60;;;;;;6215402;23;20409;-76
2023/03/23 14:55:46;;;;;;;12.47;11.80;;;19.80;84.10;;;;;;6215101;23;20398;-76
2023/03/23 14:58:15;;;;;;;11.70;11.20;;;19.70;84.30;;;;;;6215902;23;20412;-76
2023/03/23 15:00:46;;;;;;;10.90;10.40;;;19.60;84.40;;;;;;6215147;23;20459;-75
2023/03/23 15:03:16;;;;;;;11.13;10.53;;;19.60;84.60;;;;;;6215201;23;20385;-74
2023/03/23 15:05:46;;;;;;;11.83;11.33;;;19.70;84.40;;;;;;6215188;23;20409;-77
2023/03/23 15:08:16;;;;;;;12.17;11.17;;;19.80;84.50;;;;;;6215012;23;20425;-76
2023/03/23 15:10:43;;;;;;;11.00;10.50;;;19.70;84.40;;;;;;6214840;23;20494;-77
2023/03/23 15:13:13;;;;;;;11.13;10.63;;;19.80;84.60;;;;;;6214736;23;20552;-76
2023/03/23 15:15:40;;;;;;;11.17;10.77;;;19.80;84.60;;;;;;6214917;23;20893;-76
2023/03/23 15:18:34;;;;;;;11.80;11.20;;;19.90;83.70;;;;;;6214799;23;20419;-76
2023/03/23 15:21:12;;;;;;;11.33;10.83;;;19.70;82.80;;;;;;6214795;23;20387;-76
2023/03/23 15:23:43;;;;;;;10.57;10.17;;;19.70;83.30;;;;;;6215159;23;20471;-76
2023/03/23 15:26:23;;;;;;;12.20;11.47;;;19.80;82.50;;;;;;6215131;23;20400;-76
2023/03/23 15:28:50;;;;;;;12.33;11.70;;;19.80;82.20;;;;;;6214910;23;20393;-76
2023/03/23 15:31:17;;;;;;;11.03;10.47;;;19.70;82.10;;;;;;6214755;23;20455;-76
2023/03/23 15:33:43;;;;;;;11.60;11.10;;;19.70;81.80;;;;;;6214589;23;20401;-76
2023/03/23 15:36:18;;;;;;;10.77;10.37;;;19.60;81.80;;;;;;6214631;23;20409;-76
2023/03/23 15:38:46;;;;;;;11.27;10.77;;;19.40;82.40;;;;;;6214351;23;20389;-76
2023/03/23 15:41:23;;;;;;;11.77;11.27;;;19.40;82.50;;;;;;6214672;23;20432;-76
2023/03/23 15:43:51;;;;;;;10.93;10.50;;;19.30;83.00;;;;;;6214931;23;20389;-76
2023/03/23 15:46:23;;;;;;;11.53;10.93;;;19.20;82.80;;;;;;6214853;23;20405;-76
2023/03/23 15:48:53;;;;;;;11.93;11.53;;;19.20;82.80;;;;;;6214160;23;20725;-76
2023/03/23 15:51:24;;;;;;;11.80;11.30;;;19.10;83.30;;;;;;6214654;23;20444;-76
2023/03/23 15:53:52;;;;;;;11.70;11.20;;;19.00;83.70;;;;;;6214345;23;20907;-76
2023/03/23 15:56:19;;;;;;;11.07;10.67;;;19.00;84.00;;;;;;6214008;23;20757;-76
2023/03/23 15:58:46;;;;;;;12.33;11.83;;;19.00;84.30;;;;;;6214901;23;20435;-76
2023/03/23 16:01:15;;;;;;;11.40;10.90;;;19.10;84.30;;;;;;6214718;23;20724;-76
2023/03/23 16:03:46;;;;;;;11.50;11.00;;;19.00;84.60;;;;;;6214160;23;20888;-76
2023/03/23 16:06:15;;;;;;;12.20;11.60;;;18.90;85.00;;;;;;6214616;23;20405;-76
2023/03/23 16:08:43;;;;;;;11.63;11.10;;;18.90;85.60;;;;;;6214431;23;20547;-76
2023/03/23 16:11:11;;;;;;;10.80;10.40;;;18.90;85.30;;;;;;6214022;23;20445;-76
2023/03/23 16:13:37;;;;;;;11.90;11.40;;;18.90;85.80;;;;;;6214728;23;20455;-76
2023/03/23 16:16:06;;;;;;;10.93;10.53;;;18.90;85.60;;;;;;6214371;23;20415;-76
2023/03/23 16:18:32;;;;;;;10.50;10.10;;;18.70;85.50;;;;;;6214370;23;20405;-75
2023/03/23 16:20:59;;;;;;;11.50;10.93;;;18.70;85.90;;;;;;6214501;23;20723;-75
2023/03/23 16:23:26;;;;;;;11.60;11.10;;;18.70;86.30;;;;;;6214229;23;20417;-75
2023/03/23 16:25:54;;;;;;;12.50;11.70;;;18.60;86.50;;;;;;6213891;23;20436;-75
2023/03/23 16:28:21;;;;;;;10.93;10.53;;;18.60;86.00;;;;;;6214231;23;20404;-74
2023/03/23 16:30:48;;;;;;;12.00;11.13;;;18.50;86.30;;;;;;6213998;23;20456;-76
2023/03/23 16:33:15;;;;;;;11.20;10.70;;;18.50;86.40;;;;;;6214243;23;20408;-74
2023/03/23 16:35:42;;;;;;;10.97;10.47;;;18.50;86.60;;;;;;6214233;23;20467;-74
2023/03/23 16:38:13;;;;;;;10.60;10.17;;;18.40;86.40;;;;;;6214742;23;20452;-75
2023/03/23 16:40:40;;;;;;;11.23;10.60;;;18.30;87.20;;;;;;6214659;23;20413;-76
2023/03/23 16:43:09;;;;;;;10.73;10.23;;;18.30;87.30;;;;;;6214717;23;20409;-76
2023/03/23 16:45:36;;;;;;;10.50;10.10;;;18.30;87.40;;;;;;6214758;23;20419;-75
2023/03/23 16:48:04;;;;;;;10.80;10.40;;;18.30;87.90;;;;;;6214602;23;20408;-76
2023/03/23 16:50:31;;;;;;;10.40;9.93;;;18.20;87.80;;;;;;6214527;23;20412;-76
2023/03/23 16:52:57;;;;;;;10.80;10.37;;;18.20;88.00;;;;;;6214565;23;20409;-76
2023/03/23 16:55:26;;;;;;;11.03;10.63;;;18.10;88.50;;;;;;6213809;23;20412;-75
2023/03/23 16:57:53;;;;;;;11.40;11.00;;;18.10;88.70;;;;;;6214309;23;20435;-77
2023/03/23 17:00:22;;;;;;;11.07;10.67;;;18.10;89.40;;;;;;6214454;23;20474;-76
2023/03/23 17:02:50;;;;;;;10.17;9.77;;;18.00;90.10;;;;;;6213806;23;20868;-76
2023/03/23 17:05:18;;;;;;;10.63;10.17;;;18.00;90.20;;;;;;6213997;23;20413;-74
2023/03/23 17:07:46;;;;;;;11.17;10.77;;;17.90;90.30;;;;;;6213847;23;20469;-74
2023/03/23 17:10:14;;;;;;;10.67;10.27;;;18.00;90.20;;;;;;6213988;23;20405;-76
2023/03/23 17:12:41;;;;;;;10.87;10.33;;;18.00;90.30;;;;;;6213724;23;20459;-76
2023/03/23 17:15:09;;;;;;;11.37;10.97;;;17.90;90.60;;;;;;6214247;23;20412;-76
2023/03/23 17:17:37;;;;;;;11.60;11.20;;;17.90;90.60;;;;;;6213657;23;20413;-75
2023/03/23 17:20:06;;;;;;;11.50;11.00;;;17.90;91.00;;;;;;6213693;23;20974;-76
2023/03/23 17:22:33;;;;;;;10.93;10.40;;;17.90;90.90;;;;;;6213752;23;20397;-76
2023/03/23 17:25:00;;;;;;;11.70;11.20;;;17.80;91.10;;;;;;6213523;23;20923;-76
2023/03/23 17:27:28;;;;;;;11.50;11.10;;;17.70;91.20;;;;;;6214208;23;20408;-76
2023/03/23 17:29:56;;;;;;;12.00;11.40;;;17.70;91.40;;;;;;6214342;23;20892;-76
2023/03/23 17:32:23;;;;;;;12.17;11.60;;;17.60;91.50;;;;;;6214609;23;20503;-76
2023/03/23 17:34:51;;;;;;;11.10;10.50;;;17.60;91.80;;;;;;6215027;23;20424;-76
2023/03/23 17:37:19;;;;;;;11.53;11.07;;;17.50;91.90;;;;;;6214899;23;20409;-75
2023/03/23 17:39:46;;;;;;;11.33;10.93;;;17.50;92.20;;;;;;6214788;23;20769;-76
2023/03/23 17:42:13;;;;;;;11.27;10.77;;;17.50;92.30;;;;;;6214681;23;20404;-75
2023/03/23 17:44:40;;;;;;;11.20;10.53;;;17.50;92.30;;;;;;6214059;23;20416;-76
2023/03/23 17:47:07;;;;;;;11.27;10.77;;;17.50;92.50;;;;;;6214429;23;20499;-76
2023/03/23 17:49:34;;;;;;;11.20;10.70;;;17.50;92.80;;;;;;6213739;23;20420;-76
2023/03/23 17:52:02;;;;;;;11.70;10.70;;;17.40;92.80;;;;;;6211649;23;20530;-75
2023/03/23 17:54:29;;;;;;;10.57;10.17;;;17.40;93.00;;;;;;6213122;23;20428;-81
2023/03/23 17:56:57;;;;;;;11.90;11.30;;;17.30;93.20;;;;;;6212310;23;20920;-76
2023/03/23 18:33:41;;;;;;;11.10;10.30;;;16.50;95.90;;;;;;5143609;27;20335;-80
2023/03/23 18:36:09;;;;;;;10.23;9.83;;;17.30;94.80;;;;;;5148088;27;20926;-77
2023/03/23 18:38:36;;;;;;;10.20;9.77;;;17.30;94.80;;;;;;5148729;27;20536;-77
2023/03/23 18:41:06;;;;;;;10.37;9.80;;;17.30;94.80;;;;;;5146448;27;20477;-76
2023/03/23 18:43:33;;;;;;;10.33;9.83;;;17.30;94.70;;;;;;5148492;27;20448;-77
2023/03/23 18:46:00;;;;;;;10.20;9.80;;;17.20;94.90;;;;;;5148059;27;20520;-77
2023/03/23 18:48:27;;;;;;;11.57;10.97;;;17.20;95.10;;;;;;5148331;27;20451;-75
2023/03/23 18:50:57;;;;;;;9.80;9.40;;;17.20;95.00;;;;;;5147852;27;20448;-76
2023/03/23 18:53:25;;;;;;;10.67;10.17;;;17.20;95.30;;;;;;5147967;27;20447;-77
2023/03/23 18:55:53;;;;;;;10.90;10.40;;;17.10;95.40;;;;;;5147691;27;20452;-76
2023/03/23 18:58:20;;;;;;;9.93;9.43;;;17.10;95.50;;;;;;5148368;27;20500;-77
2023/03/23 19:00:48;;;;;;;9.73;9.33;;;17.10;95.60;;;;;;5147827;27;20452;-76
2023/03/23 19:03:15;;;;;;;10.90;10.30;;;17.00;95.70;;;;;;5147883;27;20455;-76
2023/03/23 19:05:43;;;;;;;10.23;9.80;;;17.00;95.80;;;;;;5147459;27;20512;-77
2023/03/23 19:08:11;;;;;;;11.00;10.50;;;17.00;95.70;;;;;;5147673;27;20515;-76
2023/03/23 19:10:41;;;;;;;10.30;9.90;;;17.00;95.80;;;;;;5147576;27;20477;-79
2023/03/23 19:13:10;;;;;;;10.17;9.77;;;17.00;95.80;;;;;;5147653;27;20494;-78
2023/03/23 19:15:38;;;;;;;10.03;9.60;;;17.00;95.80;;;;;;5147687;27;20458;-76
2023/03/23 19:18:05;;;;;;;10.67;10.17;;;17.00;95.70;;;;;;5147577;27;20444;-76
2023/03/23 19:20:32;;;;;;;10.43;9.77;;;17.00;95.60;;;;;;5147575;27;20504;-77
2023/03/23 19:22:58;;;;;;;10.10;9.60;;;17.00;95.70;;;;;;5147251;27;20471;-77
2023/03/23 19:25:26;;;;;;;10.37;9.97;;;17.00;95.60;;;;;;5147611;27;20872;-80
2023/03/23 19:27:53;;;;;;;10.50;9.90;;;17.00;95.60;;;;;;5147240;27;20451;-78
2023/03/23 19:30:20;;;;;;;10.93;10.40;;;17.10;95.60;;;;;;5147716;27;20851;-77
2023/03/23 19:32:47;;;;;;;10.10;9.60;;;17.10;95.50;;;;;;5143411;27;20965;-78
2023/03/23 19:35:13;;;;;;;11.33;10.77;;;17.20;95.30;;;;;;5133663;27;20509;-77
2023/03/23 19:37:40;;;;;;;10.40;10.00;;;17.10;95.20;;;;;;5133460;27;20456;-77
2023/03/23 19:40:09;;;;;;;10.87;10.37;;;17.20;95.20;;;;;;5135134;27;20970;-79
2023/03/23 19:42:37;;;;;;;11.20;10.70;;;17.20;95.00;;;;;;5136014;27;20440;-78
2023/03/23 19:45:04;;;;;;;10.63;10.20;;;17.20;95.00;;;;;;5137165;27;20479;-78
2023/03/23 19:47:31;;;;;;;10.90;10.40;;;17.20;94.90;;;;;;5136406;27;20943;-79
2023/03/23 19:49:58;;;;;;;11.13;10.73;;;17.20;95.00;;;;;;5136428;27;21016;-78
2023/03/23 19:52:26;;;;;;;10.63;10.13;;;17.20;94.90;;;;;;5135544;27;20541;-79
2023/03/23 19:54:53;;;;;;;10.40;10.00;;;17.30;94.70;;;;;;5133706;27;20884;-79
2023/03/23 19:57:21;;;;;;;10.93;10.33;;;17.20;94.70;;;;;;5133437;27;20460;-78
2023/03/23 19:59:49;;;;;;;9.77;9.43;;;17.20;94.80;;;;;;5133084;27;20599;-78
2023/03/23 20:02:16;;;;;;;11.50;10.40;;;17.20;94.80;;;;;;5133055;27;20433;-78
2023/03/23 20:04:43;;;;;;;10.93;10.43;;;17.10;95.00;;;;;;5132668;27;20459;-77
2023/03/23 20:07:10;;;;;;;11.23;10.73;;;17.10;95.20;;;;;;5132786;27;20445;-78
2023/03/23 20:09:37;;;;;;;11.30;10.70;;;17.10;95.30;;;;;;5132703;27;20452;-78
2023/03/23 20:12:04;;;;;;;11.07;10.53;;;17.10;95.50;;;;;;5132757;27;20573;-78
2023/03/23 20:14:31;;;;;;;10.73;10.33;;;17.00;95.50;;;;;;5132463;27;20448;-77
2023/03/23 20:16:59;;;;;;;10.57;10.17;;;16.90;95.60;;;;;;5132433;27;20457;-78
2023/03/23 20:19:26;;;;;;;11.30;10.70;;;17.00;95.60;;;;;;5132174;27;20470;-78
2023/03/23 20:21:52;;;;;;;10.67;10.20;;;17.00;95.60;;;;;;5131980;27;20505;-78
2023/03/23 20:24:19;;;;;;;11.70;11.20;;;17.00;95.80;;;;;;5132685;27;20558;-78
2023/03/23 20:26:46;;;;;;;12.77;11.97;;;16.90;95.80;;;;;;5133268;27;20518;-78
2023/03/23 20:29:13;;;;;;;12.03;11.33;;;16.90;96.00;;;;;;5133155;27;20452;-78
2023/03/23 20:31:41;;;;;;;11.87;11.37;;;16.90;96.10;;;;;;5131780;27;20716;-78
2023/03/23 20:34:12;;;;;;;11.30;10.70;;;16.80;96.20;;;;;;5132735;27;20448;-78
2023/03/23 20:36:41;;;;;;;11.87;11.17;;;16.80;96.30;;;;;;5132589;27;20444;-78
2023/03/23 20:39:11;;;;;;;11.97;11.43;;;16.80;96.40;;;;;;5132193;27;20456;-78
2023/03/23 20:41:39;;;;;;;11.67;11.17;;;16.80;96.40;;;;;;5132760;27;20459;-78
2023/03/23 20:44:07;;;;;;;10.90;10.50;;;16.80;96.40;;;;;;5132111;27;20495;-78
2023/03/23 20:46:35;;;;;;;11.83;11.23;;;16.80;96.60;;;;;;5132027;27;20459;-77
2023/03/23 20:49:04;;;;;;;11.00;10.50;;;16.80;96.50;;;;;;5131697;27;20505;-77
2023/03/23 20:51:32;;;;;;;11.40;10.90;;;16.80;96.60;;;;;;5132128;27;20448;-79
2023/03/23 20:54:00;;;;;;;11.20;10.67;;;16.70;96.70;;;;;;5131655;27;20547;-78
2023/03/23 20:56:28;;;;;;;11.20;10.70;;;16.70;96.70;;;;;;5131865;27;20445;-76
2023/03/23 20:58:54;;;;;;;12.03;11.47;;;16.70;96.90;;;;;;5131194;27;20444;-76
2023/03/23 21:01:21;;;;;;;11.43;10.93;;;16.70;96.90;;;;;;5131684;27;20436;-82
2023/03/23 21:03:50;;;;;;;11.43;10.80;;;16.60;96.90;;;;;;5131503;27;20444;-77
2023/03/23 21:06:18;;;;;;;11.57;11.07;;;16.60;97.10;;;;;;5128693;27;20445;-76
2023/03/23 21:08:46;;;;;;;12.03;11.43;;;16.60;97.20;;;;;;5131036;27;20476;-79
2023/03/23 21:11:17;;;;;;;11.30;10.90;;;16.60;97.20;;;;;;5131747;27;20521;-77
2023/03/23 21:13:45;;;;;;;11.70;11.20;;;16.60;97.40;;;;;;5128945;27;20502;-78
2023/03/23 21:16:11;;;;;;;12.17;11.47;;;16.60;97.40;;;;;;5131588;27;20440;-79
2023/03/23 21:18:38;;;;;;;11.67;11.17;;;16.50;97.60;;;;;;5131869;27;20548;-80
2023/03/23 21:21:09;;;;;;;11.50;11.00;;;16.50;97.70;;;;;;5131743;27;20449;-79
2023/03/23 21:23:37;;;;;;;12.70;11.77;;;16.50;97.80;;;;;;5131930;27;20456;-79
2023/03/23 21:26:08;;;;;;;12.03;11.43;;;16.50;97.80;;;;;;5129180;27;20497;-80
2023/03/23 21:28:35;;;;;;;11.87;11.30;;;16.40;97.80;;;;;;5132275;27;20441;-80
2023/03/23 21:31:04;;;;;;;11.57;11.07;;;16.50;97.70;;;;;;5131497;27;20455;-80
2023/03/23 21:33:31;;;;;;;11.63;11.13;;;16.40;97.80;;;;;;5131613;27;20540;-79
2023/03/23 21:35:59;;;;;;;11.80;11.20;;;16.40;98.00;;;;;;5131373;27;20437;-79
2023/03/23 21:38:26;;;;;;;12.03;11.27;;;16.40;97.90;;;;;;5128718;27;20454;-78
2023/03/23 21:40:53;;;;;;;11.70;11.20;;;16.40;97.90;;;;;;5131223;27;20445;-77
2023/03/23 21:43:26;;;;;;;11.97;11.40;;;16.30;98.10;;;;;;5130985;27;20882;-77
2023/03/23 21:45:54;;;;;;;11.67;11.17;;;16.30;98.30;;;;;;5130986;27;20437;-78
2023/03/23 21:48:22;;;;;;;13.20;12.27;;;16.30;98.50;;;;;;5131030;27;20437;-78
2023/03/23 21:50:49;;;;;;;12.20;11.60;;;16.30;98.70;;;;;;5131129;27;20440;-78
2023/03/23 21:53:17;;;;;;;13.03;12.23;;;16.20;98.90;;;;;;5130805;27;20480;-79
2023/03/23 21:55:46;;;;;;;12.23;11.57;;;16.10;99.20;;;;;;5128035;27;20544;-78
2023/03/23 21:58:13;;;;;;;13.00;12.20;;;16.00;99.60;;;;;;5131030;27;20539;-78
2023/03/23 22:00:41;;;;;;;12.97;12.37;;;15.90;99.90;;;;;;5130988;27;20441;-78
2023/03/23 22:03:08;;;;;;;13.13;12.03;;;15.90;99.90;;;;;;5130709;27;20476;-79
2023/03/23 22:05:39;;;;;;;14.00;12.50;;;15.80;99.90;;;;;;5130707;27;20951;-81
2023/03/23 22:08:08;;;;;;;13.10;12.07;;;15.70;99.90;;;;;;5128174;27;20500;-79
2023/03/23 22:10:35;;;;;;;12.73;12.00;;;15.70;99.90;;;;;;5130906;27;20440;-79
2023/03/23 22:13:01;;;;;;;12.70;11.90;;;15.70;99.90;;;;;;5130514;27;20476;-78
2023/03/23 22:15:28;;;;;;;12.30;11.70;;;15.60;99.90;;;;;;5131613;27;20505;-79
2023/03/23 22:17:56;;;;;;;12.73;11.60;;;15.60;99.90;;;;;;5131050;27;20517;-77
2023/03/23 22:20:24;;;;;;;12.80;12.10;;;15.60;99.90;;;;;;5130407;27;20464;-78
2023/03/23 22:22:52;;;;;;;12.63;12.00;;;15.60;99.90;;;;;;5130656;27;20995;-78
2023/03/23 22:25:19;;;;;;;12.10;11.57;;;15.50;99.90;;;;;;5130259;27;20445;-78
2023/03/23 22:27:46;;;;;;;12.80;12.10;;;15.40;99.90;;;;;;5130670;27;20443;-78
2023/03/23 22:30:14;;;;;;;12.83;12.13;;;15.30;99.90;;;;;;5130600;27;20447;-77
2023/03/23 22:32:41;;;;;;;12.93;12.27;;;15.30;99.90;;;;;;5130117;27;20502;-77
2023/03/23 22:35:11;;;;;;;12.40;11.80;;;15.30;99.90;;;;;;5130591;27;20449;-77
2023/03/23 22:37:38;;;;;;;13.57;12.97;;;15.30;99.90;;;;;;5130027;27;20444;-77
2023/03/23 22:40:07;;;;;;;13.87;13.07;;;15.30;99.90;;;;;;5127406;28;20974;-76
2023/03/23 22:42:34;;;;;;;19.87;13.23;;;15.30;99.90;;;;;;5130222;27;20468;-77
2023/03/23 22:45:01;;;;;;;13.17;12.37;;;15.40;99.90;;;;;;5130275;27;20543;-78
2023/03/23 22:47:28;;;;;;;13.90;13.10;;;15.30;99.90;;;;;;5128951;27;20440;-81
2023/03/23 22:49:54;;;;;;;13.27;12.57;;;15.20;99.90;;;;;;5130540;27;20819;-80
2023/03/23 22:52:22;;;;;;;13.10;12.20;;;15.20;99.90;;;;;;5130651;27;20682;-79
2023/03/23 22:54:49;;;;;;;12.60;11.90;;;15.20;99.90;;;;;;5131076;27;20975;-79
2023/03/23 22:57:16;;;;;;;12.93;12.10;;;15.10;99.90;;;;;;5130837;27;20467;-79
2023/03/23 22:59:42;;;;;;;13.17;12.37;;;15.10;99.90;;;;;;5130898;27;20931;-78
2023/03/23 23:02:09;;;;;;;12.20;11.40;;;15.20;99.90;;;;;;5130951;27;20548;-79
2023/03/23 23:04:36;;;;;;;13.07;12.10;;;15.20;99.90;;;;;;5130443;27;20508;-79
2023/03/23 23:07:03;;;;;;;13.00;12.30;;;15.20;99.90;;;;;;5130873;27;20543;-81
2023/03/23 23:09:31;;;;;;;12.43;11.83;;;15.20;99.90;;;;;;5133502;27;20815;-81
2023/03/23 23:11:57;;;;;;;12.30;11.70;;;15.20;99.90;;;;;;5134456;27;20475;-81
2023/03/23 23:14:24;;;;;;;12.53;11.93;;;15.20;99.90;;;;;;5134437;27;20476;-80
2023/03/23 23:16:51;;;;;;;12.13;11.43;;;15.20;99.90;;;;;;5134663;27;20448;-79
2023/03/23 23:19:18;;;;;;;11.83;11.13;;;15.20;99.90;;;;;;5134444;27;20595;-79
2023/03/23 23:21:44;;;;;;;11.83;11.33;;;15.20;99.90;;;;;;5134264;27;20460;-79
2023/03/23 23:24:11;;;;;;;11.70;11.10;;;15.20;99.90;;;;;;5133310;27;20503;-79
2023/03/23 23:26:39;;;;;;;12.60;11.90;;;15.10;99.90;;;;;;5133750;27;20452;-79